createdAt,value
2018-03-01T00:00:02.680Z,43.11
2018-03-01T00:02:31.777Z,43.08
2018-03-01T00:05:01.070Z,43.18
2018-03-01T00:07:30.182Z,43.66
2018-03-01T00:10:00.074Z,42.94
2018-03-01T00:12:29.199Z,42.99
2018-03-01T00:14:58.291Z,42.80
2018-03-01T00:17:27.413Z,42.72
2018-03-01T00:19:57.290Z,43.12
2018-03-01T00:22:37.169Z,43.18
2018-03-01T00:25:08.061Z,43.37
2018-03-01T00:27:37.222Z,43.24
2018-03-01T00:30:06.293Z,43.43
2018-03-01T00:32:36.183Z,43.27
2018-03-01T00:35:05.283Z,43.28
2018-03-01T00:37:34.406Z,43.46
2018-03-01T00:40:04.266Z,43.45
2018-03-01T00:42:33.392Z,43.58
2018-03-01T00:45:02.502Z,43.61
2018-03-01T00:47:32.391Z,43.70
2018-03-01T00:50:01.488Z,43.62
2018-03-01T00:52:32.133Z,44.09
2018-03-01T00:55:01.221Z,44.65
2018-03-01T00:57:30.322Z,44.08
2018-03-01T00:59:59.455Z,43.92
2018-03-01T01:02:28.558Z,43.70
2018-03-01T01:04:57.678Z,43.58
2018-03-01T01:07:26.783Z,43.85
2018-03-01T01:09:55.898Z,43.87
2018-03-01T01:12:25.004Z,43.89
2018-03-01T01:14:54.124Z,43.93
2018-03-01T01:17:23.982Z,44.17
2018-03-01T01:19:53.095Z,43.86
2018-03-01T01:22:22.225Z,43.91
2018-03-01T01:24:52.086Z,43.83
2018-03-01T01:27:21.215Z,43.67
2018-03-01T01:29:50.310Z,43.76
2018-03-01T01:32:20.211Z,45.12
2018-03-01T01:34:50.818Z,44.36
2018-03-01T01:37:19.945Z,44.29
2018-03-01T01:39:49.043Z,44.29
2018-03-01T01:42:19.271Z,44.25
2018-03-01T01:44:48.362Z,44.35
2018-03-01T01:47:17.498Z,44.57
2018-03-01T01:49:46.598Z,44.56
2018-03-01T01:52:15.701Z,44.49
2018-03-01T01:54:44.814Z,44.41
2018-03-01T01:57:13.940Z,44.81
2018-03-01T01:59:43.054Z,44.46
2018-03-01T02:02:12.941Z,44.59
2018-03-01T02:04:42.042Z,44.62
2018-03-01T02:07:11.155Z,44.58
2018-03-01T02:09:40.281Z,44.60
2018-03-01T02:12:09.395Z,44.50
2018-03-01T02:14:38.509Z,45.01
2018-03-01T02:17:07.597Z,44.73
2018-03-01T02:19:36.718Z,44.80
2018-03-01T02:22:05.809Z,44.92
2018-03-01T02:24:34.914Z,44.78
2018-03-01T02:27:04.031Z,44.68
2018-03-01T02:29:33.918Z,44.39
2018-03-01T02:32:03.021Z,44.30
2018-03-01T02:34:32.147Z,44.58
2018-03-01T02:37:02.022Z,44.63
2018-03-01T02:39:31.110Z,44.63
2018-03-01T02:42:00.226Z,44.56
2018-03-01T02:44:29.319Z,44.59
2018-03-01T02:46:58.458Z,44.81
2018-03-01T02:49:28.311Z,44.85
2018-03-01T02:51:57.412Z,44.54
2018-03-01T02:54:27.271Z,44.77
2018-03-01T02:56:57.154Z,44.43
2018-03-01T02:59:26.245Z,44.36
2018-03-01T03:01:55.358Z,44.17
2018-03-01T03:04:24.493Z,44.32
2018-03-01T03:06:53.608Z,44.32
2018-03-01T03:09:23.489Z,44.32
2018-03-01T03:11:53.352Z,44.41
2018-03-01T03:14:22.452Z,44.56
2018-03-01T03:16:51.559Z,44.74
2018-03-01T03:19:20.690Z,44.27
2018-03-01T03:21:50.561Z,44.34
2018-03-01T03:24:19.669Z,44.24
2018-03-01T03:26:48.782Z,44.23
2018-03-01T03:29:17.893Z,44.28
2018-03-01T03:31:47.798Z,44.25
2018-03-01T03:34:16.874Z,44.56
2018-03-01T03:36:45.978Z,44.42
2018-03-01T03:39:15.087Z,44.70
2018-03-01T03:41:44.956Z,44.20
2018-03-01T03:44:14.071Z,44.31
2018-03-01T03:46:44.693Z,44.18
2018-03-01T03:49:13.790Z,44.28
2018-03-01T03:51:42.914Z,44.38
2018-03-01T03:54:12.791Z,44.06
2018-03-01T03:56:41.902Z,44.47
2018-03-01T03:59:11.004Z,44.34
2018-03-01T04:01:40.130Z,44.36
2018-03-01T04:04:09.236Z,44.70
2018-03-01T04:06:38.350Z,44.21
2018-03-01T04:09:07.454Z,44.15
2018-03-01T04:11:36.563Z,44.34
2018-03-01T04:14:05.673Z,44.21
2018-03-01T04:16:34.794Z,44.23
2018-03-01T04:19:03.894Z,44.28
2018-03-01T04:21:32.994Z,44.35
2018-03-01T04:24:02.869Z,44.46
2018-03-01T04:26:32.001Z,44.41
2018-03-01T04:29:01.879Z,44.27
2018-03-01T04:31:30.967Z,44.39
2018-03-01T04:34:00.083Z,44.31
2018-03-01T04:36:29.192Z,44.40
2018-03-01T04:38:58.309Z,44.27
2018-03-01T04:41:27.417Z,44.27
2018-03-01T04:43:56.521Z,44.23
2018-03-01T04:46:25.639Z,44.35
2018-03-01T04:48:54.746Z,44.51
2018-03-01T04:51:23.880Z,44.73
2018-03-01T04:53:53.755Z,44.97
2018-03-01T04:56:22.850Z,44.87
2018-03-01T04:58:51.967Z,44.55
2018-03-01T05:01:21.080Z,44.17
2018-03-01T05:03:50.945Z,44.55
2018-03-01T05:06:20.066Z,44.47
2018-03-01T05:08:49.146Z,45.15
2018-03-01T05:11:19.036Z,44.58
2018-03-01T05:13:48.157Z,44.12
2018-03-01T05:16:17.264Z,44.28
2018-03-01T05:18:46.386Z,44.49
2018-03-01T05:21:15.474Z,44.50
2018-03-01T05:23:44.595Z,44.15
2018-03-01T05:26:14.454Z,44.17
2018-03-01T05:28:43.577Z,44.32
2018-03-01T05:31:12.678Z,44.78
2018-03-01T05:33:41.791Z,44.68
2018-03-01T05:36:11.644Z,44.60
2018-03-01T05:38:40.754Z,44.39
2018-03-01T05:41:09.857Z,44.73
2018-03-01T05:43:38.962Z,44.71
2018-03-01T05:46:08.075Z,44.70
2018-03-01T05:48:37.164Z,44.79
2018-03-01T05:51:06.293Z,44.50
2018-03-01T05:53:36.145Z,44.49
2018-03-01T05:56:05.277Z,44.70
2018-03-01T05:58:35.146Z,44.56
2018-03-01T06:01:04.277Z,44.86
2018-03-01T06:03:33.388Z,44.80
2018-03-01T06:06:02.550Z,44.70
2018-03-01T06:08:31.641Z,44.55
2018-03-01T06:11:00.754Z,44.50
2018-03-01T06:13:31.362Z,44.67
2018-03-01T06:16:00.474Z,44.45
2018-03-01T06:18:29.575Z,45.42
2018-03-01T06:20:58.690Z,44.33
2018-03-01T06:23:28.652Z,44.56
2018-03-01T06:25:57.745Z,44.69
2018-03-01T06:28:26.862Z,44.48
2018-03-01T06:30:55.943Z,44.50
2018-03-01T06:33:25.070Z,44.43
2018-03-01T06:35:54.159Z,44.51
2018-03-01T06:38:23.297Z,44.45
2018-03-01T06:40:52.408Z,44.64
2018-03-01T06:43:22.263Z,44.12
2018-03-01T06:45:51.380Z,44.50
2018-03-01T06:48:20.504Z,44.25
2018-03-01T06:50:50.390Z,44.03
2018-03-01T06:53:19.487Z,43.86
2018-03-01T06:55:48.616Z,43.97
2018-03-01T06:58:18.515Z,44.21
2018-03-01T07:00:47.617Z,43.76
2018-03-01T07:03:16.730Z,43.71
2018-03-01T07:05:45.861Z,43.75
2018-03-01T07:08:14.932Z,43.59
2018-03-01T07:10:44.043Z,43.62
2018-03-01T07:13:13.161Z,43.88
2018-03-01T07:15:42.262Z,43.57
2018-03-01T07:18:11.369Z,43.78
2018-03-01T07:20:40.476Z,43.71
2018-03-01T07:23:09.602Z,43.44
2018-03-01T07:25:38.690Z,43.59
2018-03-01T07:28:07.789Z,43.46
2018-03-01T07:30:37.670Z,43.50
2018-03-01T07:33:06.786Z,43.44
2018-03-01T07:35:35.898Z,43.92
2018-03-01T07:38:04.983Z,43.26
2018-03-01T07:40:34.878Z,43.10
2018-03-01T07:43:03.984Z,42.98
2018-03-01T07:45:33.885Z,42.76
2018-03-01T07:48:02.984Z,43.04
2018-03-01T07:50:32.094Z,43.51
2018-03-01T07:53:02.032Z,42.80
2018-03-01T07:55:31.883Z,42.64
2018-03-01T07:58:00.990Z,42.59
2018-03-01T08:00:30.079Z,42.42
2018-03-01T08:02:59.265Z,42.69
2018-03-01T08:05:29.099Z,42.45
2018-03-01T08:07:58.958Z,42.63
2018-03-01T08:10:28.091Z,42.46
2018-03-01T08:12:57.194Z,42.28
2018-03-01T08:15:27.095Z,42.36
2018-03-01T08:17:56.193Z,42.62
2018-03-01T08:20:25.318Z,42.68
2018-03-01T08:22:54.417Z,42.47
2018-03-01T08:25:23.600Z,42.30
2018-03-01T08:27:52.678Z,42.43
2018-03-01T08:30:21.802Z,42.49
2018-03-01T08:32:50.911Z,42.66
2018-03-01T08:35:20.006Z,42.68
2018-03-01T08:37:49.105Z,42.49
2018-03-01T08:40:18.974Z,42.44
2018-03-01T08:42:48.136Z,42.14
2018-03-01T08:45:17.208Z,42.17
2018-03-01T08:47:46.325Z,42.18
2018-03-01T08:50:16.178Z,42.00
2018-03-01T08:52:45.274Z,42.06
2018-03-01T08:55:14.419Z,42.07
2018-03-01T08:57:43.527Z,42.27
2018-03-01T09:00:13.405Z,41.84
2018-03-01T09:02:42.509Z,42.03
2018-03-01T09:05:11.620Z,41.66
2018-03-01T09:07:41.481Z,41.98
2018-03-01T09:10:10.607Z,41.55
2018-03-01T09:12:39.708Z,41.32
2018-03-01T09:15:08.842Z,41.47
2018-03-01T09:17:37.931Z,41.58
2018-03-01T09:20:07.810Z,41.25
2018-03-01T09:22:36.906Z,41.00
2018-03-01T09:25:06.004Z,41.04
2018-03-01T09:27:35.148Z,41.51
2018-03-01T09:30:04.249Z,41.38
2018-03-01T09:32:33.757Z,41.29
2018-03-01T09:35:02.874Z,41.36
2018-03-01T09:37:31.997Z,40.95
2018-03-01T09:40:01.117Z,40.81
2018-03-01T09:42:30.999Z,40.73
2018-03-01T09:45:00.124Z,40.85
2018-03-01T09:47:30.002Z,40.82
2018-03-01T09:49:59.096Z,40.36
2018-03-01T09:52:28.230Z,40.39
2018-03-01T09:54:58.125Z,40.25
2018-03-01T09:57:27.238Z,40.35
2018-03-01T09:59:57.126Z,39.82
2018-03-01T10:02:26.219Z,39.85
2018-03-01T10:04:55.336Z,39.89
2018-03-01T10:07:24.471Z,39.64
2018-03-01T10:09:53.555Z,39.64
2018-03-01T10:12:22.671Z,39.47
2018-03-01T10:14:51.774Z,39.77
2018-03-01T10:17:20.914Z,39.41
2018-03-01T10:19:50.035Z,39.48
2018-03-01T10:22:19.921Z,39.55
2018-03-01T10:24:49.043Z,39.44
2018-03-01T10:27:18.921Z,39.35
2018-03-01T10:29:48.023Z,39.34
2018-03-01T10:32:17.144Z,38.82
2018-03-01T10:34:47.066Z,39.04
2018-03-01T10:37:16.949Z,38.50
2018-03-01T10:39:46.091Z,38.14
2018-03-01T10:42:15.217Z,38.32
2018-03-01T10:44:44.331Z,38.28
2018-03-01T10:47:13.423Z,38.19
2018-03-01T10:49:42.544Z,39.15
2018-03-01T10:52:11.651Z,38.15
2018-03-01T10:54:41.524Z,38.08
2018-03-01T10:57:10.635Z,37.75
2018-03-01T10:59:39.798Z,38.43
2018-03-01T11:02:09.649Z,37.52
2018-03-01T11:04:38.768Z,37.52
2018-03-01T11:07:07.846Z,37.10
2018-03-01T11:09:36.951Z,37.16
2018-03-01T11:12:06.102Z,36.62
2018-03-01T11:14:35.171Z,36.72
2018-03-01T11:17:04.257Z,36.80
2018-03-01T11:19:34.128Z,36.93
2018-03-01T11:22:03.229Z,36.95
2018-03-01T11:24:32.322Z,37.19
2018-03-01T11:27:01.435Z,36.95
2018-03-01T11:29:30.511Z,37.04
2018-03-01T11:31:59.635Z,36.84
2018-03-01T11:34:28.739Z,36.79
2018-03-01T11:36:58.622Z,37.11
2018-03-01T11:39:27.715Z,36.07
2018-03-01T11:41:56.874Z,36.32
2018-03-01T11:44:25.927Z,35.48
2018-03-01T11:46:55.051Z,35.45
2018-03-01T11:49:24.919Z,35.48
2018-03-01T11:51:54.022Z,35.96
2018-03-01T11:54:23.118Z,35.67
2018-03-01T11:56:52.226Z,35.86
2018-03-01T11:59:21.339Z,35.88
2018-03-01T12:01:51.205Z,36.55
2018-03-01T12:04:20.319Z,35.51
2018-03-01T12:06:49.426Z,34.80
2018-03-01T12:09:18.547Z,34.75
2018-03-01T12:11:48.404Z,34.88
2018-03-01T12:14:17.512Z,34.87
2018-03-01T12:16:46.618Z,34.98
2018-03-01T12:19:15.720Z,35.18
2018-03-01T12:21:44.809Z,35.15
2018-03-01T12:24:13.907Z,34.74
2018-03-01T12:26:43.023Z,34.68
2018-03-01T12:29:12.107Z,34.71
2018-03-01T12:31:41.227Z,34.80
2018-03-01T12:34:11.063Z,34.53
2018-03-01T12:36:40.166Z,34.48
2018-03-01T12:39:09.267Z,34.47
2018-03-01T12:41:38.368Z,34.44
2018-03-01T12:44:07.454Z,34.54
2018-03-01T12:46:36.571Z,34.91
2018-03-01T12:49:05.673Z,34.37
2018-03-01T12:51:34.790Z,34.68
2018-03-01T12:54:03.892Z,34.89
2018-03-01T12:56:33.005Z,34.63
2018-03-01T12:59:02.855Z,34.65
2018-03-01T13:01:31.956Z,34.74
2018-03-01T13:04:01.380Z,34.41
2018-03-01T13:06:30.509Z,34.48
2018-03-01T13:09:00.421Z,34.63
2018-03-01T13:11:30.283Z,34.35
2018-03-01T13:13:59.394Z,34.40
2018-03-01T13:16:28.488Z,34.43
2018-03-01T13:18:57.583Z,34.60
2018-03-01T13:21:26.662Z,34.68
2018-03-01T13:23:55.762Z,34.75
2018-03-01T13:26:24.870Z,34.55
2018-03-01T13:28:53.986Z,34.49
2018-03-01T13:31:23.081Z,35.03
2018-03-01T13:33:53.975Z,34.53
2018-03-01T13:36:23.047Z,34.68
2018-03-01T13:38:52.161Z,34.92
2018-03-01T13:41:21.281Z,34.57
2018-03-01T13:43:50.369Z,34.46
2018-03-01T13:59:40.869Z,34.31
2018-03-01T14:02:09.973Z,34.36
2018-03-01T14:04:39.077Z,33.83
2018-03-01T14:20:56.415Z,33.48
2018-03-01T14:23:31.842Z,33.03
2018-03-01T14:26:04.462Z,32.87
2018-03-01T14:28:36.995Z,32.56
2018-03-01T14:31:06.094Z,32.06
2018-03-01T14:33:35.194Z,31.83
2018-03-01T14:36:04.308Z,31.16
2018-03-01T14:38:34.186Z,30.18
2018-03-01T14:41:03.298Z,27.66
2018-03-01T14:43:32.374Z,28.61
2018-03-01T14:46:01.485Z,29.85
2018-03-01T14:48:30.607Z,30.82
2018-03-01T14:51:00.474Z,32.01
2018-03-01T14:53:29.590Z,32.28
2018-03-01T14:55:59.655Z,32.76
2018-03-01T14:58:29.513Z,33.00
2018-03-01T15:00:58.649Z,32.89
2018-03-01T15:03:28.498Z,32.92
2018-03-01T15:05:57.601Z,33.22
2018-03-01T15:08:26.711Z,33.53
2018-03-01T15:10:55.878Z,33.34
2018-03-01T15:13:24.959Z,33.18
2018-03-01T15:15:54.084Z,33.19
2018-03-01T15:18:23.204Z,33.17
2018-03-01T15:20:52.291Z,32.76
2018-03-01T15:23:21.429Z,32.87
2018-03-01T15:25:50.561Z,32.86
2018-03-01T15:28:19.658Z,32.84
2018-03-01T15:30:48.806Z,33.13
2018-03-01T15:33:19.416Z,33.27
2018-03-01T15:35:48.516Z,33.21
2018-03-01T15:38:17.614Z,33.31
2018-03-01T15:40:46.732Z,33.55
2018-03-01T15:43:16.595Z,33.47
2018-03-01T15:45:45.730Z,33.51
2018-03-01T15:48:14.826Z,33.31
2018-03-01T15:50:43.941Z,33.30
2018-03-01T15:53:13.035Z,33.67
2018-03-01T15:55:42.118Z,34.12
2018-03-01T15:58:11.261Z,34.17
2018-03-01T16:00:40.391Z,33.86
2018-03-01T16:03:09.505Z,33.96
2018-03-01T16:05:38.594Z,34.05
2018-03-01T16:08:07.707Z,34.43
2018-03-01T16:10:36.807Z,34.43
2018-03-01T16:13:06.714Z,34.22
2018-03-01T16:15:35.824Z,34.40
2018-03-01T16:18:05.732Z,33.98
2018-03-01T16:20:34.824Z,34.00
2018-03-01T16:23:03.941Z,34.07
2018-03-01T16:25:33.806Z,34.17
2018-03-01T16:28:02.911Z,33.91
2018-03-01T16:30:32.045Z,34.21
2018-03-01T16:33:01.953Z,34.10
2018-03-01T16:35:31.840Z,33.93
2018-03-01T16:38:00.962Z,34.33
2018-03-01T16:40:30.059Z,34.18
2018-03-01T16:42:59.938Z,34.11
2018-03-01T16:45:29.058Z,34.40
2018-03-01T16:47:58.188Z,34.46
2018-03-01T16:50:27.304Z,34.63
2018-03-01T16:52:56.403Z,35.02
2018-03-01T16:55:25.500Z,34.81
2018-03-01T16:57:54.587Z,34.80
2018-03-01T17:00:23.706Z,34.73
2018-03-01T17:02:52.834Z,34.61
2018-03-01T17:05:21.927Z,34.48
2018-03-01T17:07:51.795Z,34.59
2018-03-01T17:10:20.952Z,34.73
2018-03-01T17:12:50.798Z,34.44
2018-03-01T17:15:19.908Z,34.57
2018-03-01T17:17:48.998Z,34.63
2018-03-01T17:20:18.136Z,34.92
2018-03-01T17:22:47.315Z,34.99
2018-03-01T17:25:16.379Z,35.11
2018-03-01T17:27:46.241Z,35.23
2018-03-01T17:30:15.360Z,35.24
2018-03-01T17:32:45.242Z,35.38
2018-03-01T17:35:14.360Z,35.58
2018-03-01T17:37:43.482Z,35.70
2018-03-01T17:40:12.590Z,35.98
2018-03-01T17:42:41.674Z,35.46
2018-03-01T17:45:10.819Z,35.71
2018-03-01T17:47:40.625Z,35.91
2018-03-01T17:50:09.738Z,35.93
2018-03-01T17:52:38.842Z,35.89
2018-03-01T17:55:08.724Z,35.90
2018-03-01T17:57:37.833Z,36.11
2018-03-01T18:00:06.930Z,36.14
2018-03-01T18:02:36.048Z,36.25
2018-03-01T18:05:05.142Z,36.36
2018-03-01T18:07:34.299Z,36.10
2018-03-01T18:10:04.161Z,36.26
2018-03-01T18:12:34.054Z,36.04
2018-03-01T18:15:03.161Z,35.97
2018-03-01T18:17:32.266Z,36.31
2018-03-01T18:20:01.369Z,36.12
2018-03-01T18:22:31.236Z,36.29
2018-03-01T18:25:00.347Z,36.35
2018-03-01T18:27:29.465Z,36.33
2018-03-01T18:29:58.571Z,36.32
2018-03-01T18:32:28.475Z,36.06
2018-03-01T18:34:57.572Z,35.99
2018-03-01T18:37:27.456Z,36.17
2018-03-01T18:39:56.582Z,36.33
2018-03-01T18:42:26.438Z,36.22
2018-03-01T18:44:55.533Z,36.27
2018-03-01T18:47:25.419Z,36.93
2018-03-01T18:49:55.284Z,36.10
2018-03-01T18:52:24.410Z,36.60
2018-03-01T18:54:55.011Z,36.51
2018-03-01T18:57:24.135Z,36.41
2018-03-01T18:59:54.060Z,36.46
2018-03-01T19:02:23.160Z,36.76
2018-03-01T19:04:53.045Z,36.50
2018-03-01T19:07:22.188Z,36.48
2018-03-01T19:09:52.065Z,36.41
2018-03-01T19:12:21.187Z,36.35
2018-03-01T19:14:51.037Z,36.69
2018-03-01T19:17:20.162Z,37.07
2018-03-01T19:19:49.280Z,36.48
2018-03-01T19:22:18.428Z,36.63
2018-03-01T19:24:47.538Z,36.47
2018-03-01T19:27:16.642Z,36.66
2018-03-01T19:29:45.793Z,36.79
2018-03-01T19:32:15.668Z,36.65
2018-03-01T19:34:46.317Z,37.05
2018-03-01T19:37:15.392Z,36.96
2018-03-01T19:39:44.546Z,37.05
2018-03-01T19:42:14.412Z,37.72
2018-03-01T19:44:43.507Z,37.03
2018-03-01T19:47:12.607Z,36.75
2018-03-01T19:49:42.495Z,36.59
2018-03-01T19:52:11.611Z,36.80
2018-03-01T19:54:40.757Z,36.92
2018-03-01T19:57:09.860Z,36.82
2018-03-01T19:59:38.954Z,36.96
2018-03-01T20:02:08.090Z,36.88
2018-03-01T20:04:37.194Z,37.05
2018-03-01T20:07:06.329Z,37.40
2018-03-01T20:09:35.417Z,37.32
2018-03-01T20:12:05.267Z,37.53
2018-03-01T20:14:34.417Z,37.42
2018-03-01T20:17:04.296Z,37.37
2018-03-01T20:19:33.420Z,37.21
2018-03-01T20:22:02.517Z,37.19
2018-03-01T20:24:32.406Z,37.16
2018-03-01T20:27:01.478Z,37.14
2018-03-01T20:29:30.626Z,37.28
2018-03-01T20:32:00.503Z,37.55
2018-03-01T20:34:29.633Z,37.57
2018-03-01T20:36:58.724Z,37.58
2018-03-01T20:39:27.884Z,37.63
2018-03-01T20:41:56.969Z,37.48
2018-03-01T20:44:26.115Z,37.81
2018-03-01T20:46:55.249Z,37.80
2018-03-01T20:49:24.416Z,37.85
2018-03-01T20:51:53.573Z,37.92
2018-03-01T20:54:22.671Z,37.87
2018-03-01T20:56:51.788Z,37.80
2018-03-01T20:59:20.884Z,37.89
2018-03-01T21:01:50.050Z,37.91
2018-03-01T21:04:19.149Z,38.02
2018-03-01T21:06:48.268Z,38.00
2018-03-01T21:09:17.394Z,38.16
2018-03-01T21:11:47.296Z,37.98
2018-03-01T21:14:17.174Z,38.32
2018-03-01T21:16:46.318Z,38.06
2018-03-01T21:19:16.177Z,37.95
2018-03-01T21:21:45.323Z,38.00
2018-03-01T21:24:15.205Z,38.10
2018-03-01T21:26:44.327Z,38.14
2018-03-01T21:29:13.446Z,38.14
2018-03-01T21:31:42.575Z,38.24
2018-03-01T21:34:11.696Z,38.61
2018-03-01T21:36:40.821Z,38.56
2018-03-01T21:39:10.722Z,38.49
2018-03-01T21:41:39.840Z,38.53
2018-03-01T21:44:09.718Z,38.38
2018-03-01T21:46:38.822Z,38.68
2018-03-01T21:49:07.950Z,38.53
2018-03-01T21:51:37.048Z,38.50
2018-03-01T21:54:06.927Z,38.76
2018-03-01T21:56:36.035Z,38.82
2018-03-01T21:59:05.899Z,38.83
2018-03-01T22:01:35.050Z,38.76
2018-03-01T22:04:04.146Z,38.73
2018-03-01T22:06:34.012Z,38.82
2018-03-01T22:09:03.108Z,38.99
2018-03-01T22:11:32.266Z,39.28
2018-03-01T22:14:02.144Z,39.22
2018-03-01T22:16:31.235Z,39.23
2018-03-01T22:19:00.346Z,39.36
2018-03-01T22:21:29.452Z,39.26
2018-03-01T22:23:58.572Z,39.25
2018-03-01T22:26:27.685Z,39.38
2018-03-01T22:28:58.630Z,39.46
2018-03-01T22:31:27.734Z,39.48
2018-03-01T22:33:56.843Z,39.62
2018-03-01T22:36:25.937Z,39.71
2018-03-01T22:38:55.043Z,39.77
2018-03-01T22:41:24.137Z,39.55
2018-03-01T22:43:53.260Z,39.54
2018-03-01T22:46:22.373Z,39.55
2018-03-01T22:48:52.225Z,39.78
2018-03-01T22:51:21.356Z,39.69
2018-03-01T22:53:50.452Z,39.83
2018-03-01T22:56:19.563Z,39.67
2018-03-01T22:58:49.429Z,39.75
2018-03-01T23:01:18.780Z,39.72
2018-03-01T23:03:47.864Z,39.91
2018-03-01T23:06:16.993Z,39.86
2018-03-01T23:08:47.291Z,40.11
2018-03-01T23:11:16.643Z,40.00
2018-03-01T23:13:45.802Z,39.99
2018-03-01T23:16:15.739Z,40.08
2018-03-01T23:18:44.858Z,40.11
2018-03-01T23:21:13.956Z,40.20
2018-03-01T23:23:43.062Z,40.22
2018-03-01T23:26:12.167Z,40.34
2018-03-01T23:28:41.284Z,40.35
2018-03-01T23:31:11.193Z,40.46
2018-03-01T23:33:40.308Z,40.44
2018-03-01T23:36:09.444Z,40.63
2018-03-01T23:38:38.579Z,40.52
2018-03-01T23:41:07.674Z,40.68
2018-03-01T23:43:36.761Z,40.67
2018-03-01T23:46:05.882Z,40.74
2018-03-01T23:48:35.746Z,40.83
2018-03-01T23:51:04.849Z,40.95
2018-03-01T23:53:33.960Z,41.00
2018-03-01T23:56:03.053Z,41.13
2018-03-01T23:58:32.170Z,41.19
